createdAt,value
2019-05-21T00:00:00.816Z,998.03
2019-05-21T00:01:00.861Z,997.99
2019-05-21T00:02:00.758Z,997.95
2019-05-21T00:03:00.771Z,997.96
2019-05-21T00:04:00.730Z,997.95
2019-05-21T00:05:00.719Z,997.96
2019-05-21T00:06:00.726Z,997.95
2019-05-21T00:07:00.727Z,998.01
2019-05-21T00:08:00.695Z,997.95
2019-05-21T00:09:00.673Z,997.95
2019-05-21T00:10:00.668Z,997.93
2019-05-21T00:11:00.687Z,997.95
2019-05-21T00:12:00.641Z,997.96
2019-05-21T00:13:00.635Z,997.95
2019-05-21T00:14:00.626Z,997.96
2019-05-21T00:15:00.656Z,997.95
2019-05-21T00:16:00.607Z,997.95
2019-05-21T00:17:00.590Z,997.99
2019-05-21T00:18:00.581Z,997.99
2019-05-21T00:19:00.564Z,998.01
2019-05-21T00:20:00.554Z,998.00
2019-05-21T00:21:00.569Z,998.02
2019-05-21T00:22:00.535Z,998.05
2019-05-21T00:23:00.527Z,998.07
2019-05-21T00:24:00.507Z,998.06
2019-05-21T00:25:00.583Z,998.11
2019-05-21T00:26:00.492Z,998.12
2019-05-21T00:27:00.475Z,998.12
2019-05-21T00:28:00.470Z,998.15
2019-05-21T00:29:00.488Z,998.10
2019-05-21T00:30:00.446Z,998.13
2019-05-21T00:31:00.432Z,998.11
2019-05-21T00:32:00.429Z,998.12
2019-05-21T00:33:00.418Z,998.10
2019-05-21T00:34:00.430Z,998.11
2019-05-21T00:35:00.402Z,998.15
2019-05-21T00:36:00.381Z,998.16
2019-05-21T00:37:00.450Z,998.16
2019-05-21T00:38:00.366Z,998.19
2019-05-21T00:39:00.436Z,998.19
2019-05-21T00:40:00.363Z,998.19
2019-05-21T00:41:00.325Z,998.19
2019-05-21T00:42:00.321Z,998.20
2019-05-21T00:43:00.307Z,998.19
2019-05-21T00:44:00.287Z,998.19
2019-05-21T00:45:00.319Z,998.21
2019-05-21T00:46:00.298Z,998.18
2019-05-21T00:47:00.298Z,998.26
2019-05-21T00:48:00.252Z,998.25
2019-05-21T00:49:00.236Z,998.25
2019-05-21T00:50:00.245Z,998.26
2019-05-21T00:51:00.207Z,998.28
2019-05-21T00:52:07.697Z,998.29
2019-05-21T00:53:01.233Z,998.30
2019-05-21T00:54:00.737Z,998.27
2019-05-21T00:55:00.176Z,998.32
2019-05-21T00:56:00.158Z,998.28
2019-05-21T00:57:00.142Z,998.29
2019-05-21T00:58:00.163Z,998.28
2019-05-21T00:59:00.136Z,998.27
2019-05-21T01:00:00.123Z,998.26
2019-05-21T01:01:00.110Z,998.26
2019-05-21T01:02:00.161Z,998.23
2019-05-21T01:03:00.094Z,998.23
2019-05-21T01:04:00.082Z,998.20
2019-05-21T01:05:01.603Z,998.21
2019-05-21T01:06:00.046Z,998.22
2019-05-21T01:07:00.041Z,998.26
2019-05-21T01:08:00.026Z,998.24
2019-05-21T01:09:00.058Z,998.26
2019-05-21T01:10:00.004Z,998.29
2019-05-21T01:10:59.988Z,998.24
2019-05-21T01:12:00.027Z,998.27
2019-05-21T01:12:59.985Z,998.25
2019-05-21T01:13:59.952Z,998.28
2019-05-21T01:14:59.945Z,998.27
2019-05-21T01:15:59.936Z,998.31
2019-05-21T01:16:59.924Z,998.29
2019-05-21T01:17:59.946Z,998.28
2019-05-21T01:18:59.984Z,998.26
2019-05-21T01:19:59.927Z,998.28
2019-05-21T01:20:59.876Z,998.26
2019-05-21T01:21:59.875Z,998.28
2019-05-21T01:22:59.856Z,998.28
2019-05-21T01:23:59.866Z,998.28
2019-05-21T01:24:59.950Z,998.28
2019-05-21T01:25:59.827Z,998.30
2019-05-21T01:26:59.809Z,998.28
2019-05-21T01:27:59.797Z,998.29
2019-05-21T01:28:59.793Z,998.22
2019-05-21T01:29:59.822Z,998.19
2019-05-21T01:30:59.763Z,998.21
2019-05-21T01:31:59.758Z,998.20
2019-05-21T01:32:59.757Z,998.20
2019-05-21T01:33:59.733Z,998.20
2019-05-21T01:35:14.623Z,998.21
2019-05-21T01:36:00.809Z,998.24
2019-05-21T01:36:59.697Z,998.21
2019-05-21T01:37:59.686Z,998.24
2019-05-21T01:38:59.685Z,998.21
2019-05-21T01:39:59.667Z,998.22
2019-05-21T01:40:59.664Z,998.22
2019-05-21T01:41:59.701Z,998.18
2019-05-21T01:43:03.061Z,998.18
2019-05-21T01:43:59.627Z,998.20
2019-05-21T01:44:59.610Z,998.20
2019-05-21T01:45:59.640Z,998.16
2019-05-21T01:46:59.601Z,998.18
2019-05-21T01:47:59.659Z,998.14
2019-05-21T01:48:59.609Z,998.20
2019-05-21T01:49:59.552Z,998.13
2019-05-21T01:50:59.548Z,998.12
2019-05-21T01:51:59.542Z,998.11
2019-05-21T01:52:59.631Z,998.10
2019-05-21T01:53:59.512Z,998.17
2019-05-21T01:54:59.503Z,998.14
2019-05-21T01:55:59.486Z,998.09
2019-05-21T01:56:59.497Z,998.12
2019-05-21T01:57:59.466Z,998.16
2019-05-21T01:58:59.536Z,998.12
2019-05-21T01:59:59.473Z,998.10
2019-05-21T02:00:59.433Z,998.11
2019-05-21T02:01:59.423Z,998.13
2019-05-21T02:02:59.414Z,998.10
2019-05-21T02:03:59.405Z,998.11
2019-05-21T02:04:59.439Z,998.11
2019-05-21T02:05:59.378Z,998.08
2019-05-21T02:06:59.363Z,998.07
2019-05-21T02:07:59.366Z,998.10
2019-05-21T02:08:59.343Z,998.09
2019-05-21T02:09:59.421Z,998.12
2019-05-21T02:10:59.322Z,998.12
2019-05-21T02:11:59.311Z,998.16
2019-05-21T02:12:59.306Z,998.17
2019-05-21T02:13:59.290Z,998.18
2019-05-21T02:14:59.281Z,998.23
2019-05-21T02:15:59.340Z,998.24
2019-05-21T02:16:59.259Z,998.26
2019-05-21T02:17:59.241Z,998.25
2019-05-21T02:18:59.278Z,998.26
2019-05-21T02:19:59.217Z,998.23
2019-05-21T02:20:59.314Z,998.23
2019-05-21T02:21:59.225Z,998.22
2019-05-21T02:22:59.190Z,998.20
2019-05-21T02:23:59.186Z,998.24
2019-05-21T02:24:59.169Z,998.28
2019-05-21T02:25:59.153Z,998.25
2019-05-21T02:26:59.180Z,998.24
2019-05-21T02:27:59.130Z,998.25
2019-05-21T02:28:59.123Z,998.27
2019-05-21T02:29:59.114Z,998.29
2019-05-21T02:30:59.155Z,998.29
2019-05-21T02:31:59.151Z,998.28
2019-05-21T02:32:59.074Z,998.30
2019-05-21T02:33:59.061Z,998.29
2019-05-21T02:34:59.058Z,998.27
2019-05-21T02:35:59.041Z,998.30
2019-05-21T02:36:59.053Z,998.28
2019-05-21T02:37:59.026Z,998.31
2019-05-21T02:38:59.024Z,998.27
2019-05-21T02:39:59.001Z,998.29
2019-05-21T02:40:58.999Z,998.29
2019-05-21T02:41:58.975Z,998.34
2019-05-21T02:42:58.997Z,998.35
2019-05-21T02:43:58.954Z,998.36
2019-05-21T02:44:58.951Z,998.40
2019-05-21T02:45:58.980Z,998.45
2019-05-21T02:46:58.967Z,998.41
2019-05-21T02:47:58.912Z,998.43
2019-05-21T02:48:58.901Z,998.38
2019-05-21T02:49:58.902Z,998.44
2019-05-21T02:50:58.881Z,998.38
2019-05-21T02:51:58.904Z,998.42
2019-05-21T02:52:58.871Z,998.45
2019-05-21T02:53:58.847Z,998.48
2019-05-21T02:54:58.829Z,998.45
2019-05-21T02:55:58.832Z,998.48
2019-05-21T02:56:58.814Z,998.48
2019-05-21T02:57:58.845Z,998.49
2019-05-21T02:58:58.864Z,998.53
2019-05-21T02:59:58.780Z,998.48
2019-05-21T03:00:58.771Z,998.56
2019-05-21T03:01:58.777Z,998.58
2019-05-21T03:02:58.748Z,998.62
2019-05-21T03:03:58.764Z,998.60
2019-05-21T03:04:58.718Z,998.62
2019-05-21T03:06:13.204Z,998.62
2019-05-21T03:06:59.696Z,998.64
2019-05-21T03:07:58.717Z,998.66
2019-05-21T03:08:58.673Z,998.65
2019-05-21T03:09:58.669Z,998.66
2019-05-21T03:10:58.659Z,998.67
2019-05-21T03:11:58.674Z,998.68
2019-05-21T03:12:58.666Z,998.65
2019-05-21T03:13:58.655Z,998.62
2019-05-21T03:14:58.640Z,998.58
2019-05-21T03:15:58.619Z,998.61
2019-05-21T03:16:58.596Z,998.62
2019-05-21T03:17:58.584Z,998.64
2019-05-21T03:18:58.655Z,998.69
2019-05-21T03:19:58.560Z,998.70
2019-05-21T03:20:58.553Z,998.73
2019-05-21T03:21:58.534Z,998.70
2019-05-21T03:22:58.521Z,998.76
2019-05-21T03:23:58.547Z,998.72
2019-05-21T03:25:02.178Z,998.71
2019-05-21T03:25:58.482Z,998.71
2019-05-21T03:26:58.473Z,998.73
2019-05-21T03:27:58.467Z,998.72
2019-05-21T03:28:58.520Z,998.74
2019-05-21T03:29:58.458Z,998.77
2019-05-21T03:30:58.431Z,998.73
2019-05-21T03:31:58.482Z,998.74
2019-05-21T03:32:58.455Z,998.71
2019-05-21T03:33:58.432Z,998.73
2019-05-21T03:34:58.404Z,998.72
2019-05-21T03:35:58.479Z,998.73
2019-05-21T03:36:58.369Z,998.72
2019-05-21T03:37:58.350Z,998.73
2019-05-21T03:38:58.341Z,998.69
2019-05-21T03:39:58.354Z,998.73
2019-05-21T03:40:58.366Z,998.77
2019-05-21T03:41:58.314Z,998.76
2019-05-21T03:42:58.299Z,998.80
2019-05-21T03:43:58.289Z,998.81
2019-05-21T03:45:00.728Z,998.84
2019-05-21T03:45:58.377Z,998.87
2019-05-21T03:46:58.249Z,998.88
2019-05-21T03:47:58.249Z,998.94
2019-05-21T03:48:58.229Z,998.96
2019-05-21T03:49:58.217Z,998.97
2019-05-21T03:50:58.292Z,998.96
2019-05-21T03:51:58.195Z,998.96
2019-05-21T03:52:58.226Z,998.99
2019-05-21T03:53:58.181Z,998.94
2019-05-21T03:55:02.681Z,998.96
2019-05-21T03:55:59.161Z,998.98
2019-05-21T03:56:58.138Z,998.90
2019-05-21T03:57:58.214Z,998.93
2019-05-21T03:58:58.125Z,998.95
2019-05-21T03:59:58.110Z,998.95
2019-05-21T04:00:58.104Z,998.95
2019-05-21T04:01:58.146Z,998.96
2019-05-21T04:02:58.138Z,998.93
2019-05-21T04:03:58.066Z,998.97
2019-05-21T04:04:58.062Z,998.93
2019-05-21T04:05:58.039Z,998.96
2019-05-21T04:06:58.036Z,998.95
2019-05-21T04:07:58.106Z,999.02
2019-05-21T04:08:58.017Z,998.93
2019-05-21T04:09:58.003Z,998.95
2019-05-21T04:10:58.023Z,998.90
2019-05-21T04:11:57.977Z,998.82
2019-05-21T04:12:57.962Z,998.83
2019-05-21T04:13:57.953Z,998.83
2019-05-21T04:14:57.938Z,998.87
2019-05-21T04:15:57.935Z,998.95
2019-05-21T04:16:57.943Z,998.93
2019-05-21T04:17:57.906Z,998.95
2019-05-21T04:18:57.891Z,998.97
2019-05-21T04:19:57.899Z,998.96
2019-05-21T04:20:57.879Z,998.94
2019-05-21T04:21:57.874Z,998.95
2019-05-21T04:22:57.916Z,998.95
2019-05-21T04:23:57.842Z,998.95
2019-05-21T04:24:57.831Z,998.98
2019-05-21T04:25:57.832Z,998.92
2019-05-21T04:26:57.814Z,998.94
2019-05-21T04:27:57.824Z,998.96
2019-05-21T04:28:57.798Z,998.96
2019-05-21T04:29:57.776Z,998.97
2019-05-21T04:30:57.766Z,998.99
2019-05-21T04:31:57.763Z,999.01
2019-05-21T04:32:57.768Z,999.05
2019-05-21T04:33:57.740Z,999.07
2019-05-21T04:34:57.722Z,999.07
2019-05-21T04:35:57.711Z,999.07
2019-05-21T04:37:09.819Z,999.03
2019-05-21T04:37:58.712Z,999.01
2019-05-21T04:38:57.673Z,998.94
2019-05-21T04:39:57.691Z,998.96
2019-05-21T04:40:57.661Z,998.97
2019-05-21T04:41:57.645Z,998.94
2019-05-21T04:43:01.726Z,998.93
2019-05-21T04:43:57.627Z,998.95
2019-05-21T04:44:57.608Z,998.93
2019-05-21T04:45:57.599Z,998.95
2019-05-21T04:46:57.590Z,998.99
2019-05-21T04:47:57.617Z,998.96
2019-05-21T04:48:57.660Z,999.00
2019-05-21T04:49:57.568Z,999.05
2019-05-21T04:50:57.566Z,998.97
2019-05-21T04:51:57.535Z,998.99
2019-05-21T04:52:57.524Z,999.02
2019-05-21T04:53:57.511Z,998.98
2019-05-21T04:54:57.520Z,999.01
2019-05-21T04:55:57.488Z,999.01
2019-05-21T04:56:57.490Z,998.99
2019-05-21T04:57:57.464Z,999.01
2019-05-21T04:58:57.451Z,999.03
2019-05-21T04:59:57.486Z,999.05
2019-05-21T05:00:57.452Z,999.03
2019-05-21T05:01:57.426Z,998.97
2019-05-21T05:02:57.425Z,998.98
2019-05-21T05:03:57.419Z,999.01
2019-05-21T05:04:57.390Z,998.98
2019-05-21T05:05:57.409Z,999.03
2019-05-21T05:06:57.367Z,999.03
2019-05-21T05:07:57.357Z,999.05
2019-05-21T05:08:57.340Z,999.03
2019-05-21T05:09:57.340Z,999.09
2019-05-21T05:10:57.322Z,999.10
2019-05-21T05:11:57.390Z,999.06
2019-05-21T05:12:57.295Z,999.09
2019-05-21T05:13:57.304Z,999.08
2019-05-21T05:14:57.278Z,999.10
2019-05-21T05:15:57.267Z,999.14
2019-05-21T05:16:57.280Z,999.15
2019-05-21T05:17:57.255Z,999.12
2019-05-21T05:18:57.231Z,999.14
2019-05-21T05:19:57.231Z,999.16
2019-05-21T05:20:57.208Z,999.16
2019-05-21T05:21:57.267Z,999.14
2019-05-21T05:22:57.207Z,999.18
2019-05-21T05:23:57.181Z,999.14
2019-05-21T05:24:57.169Z,999.17
2019-05-21T05:25:57.162Z,999.14
2019-05-21T05:26:57.182Z,999.16
2019-05-21T05:27:57.131Z,999.13
2019-05-21T05:28:57.123Z,999.14
2019-05-21T05:29:57.175Z,999.09
2019-05-21T05:30:57.098Z,999.08
2019-05-21T05:31:57.101Z,999.10
2019-05-21T05:32:57.122Z,999.11
2019-05-21T05:33:57.063Z,999.13
2019-05-21T05:34:57.067Z,999.16
2019-05-21T05:35:57.157Z,999.12
2019-05-21T05:36:57.037Z,999.10
2019-05-21T05:37:57.027Z,999.12
2019-05-21T05:38:57.025Z,999.10
2019-05-21T05:39:56.996Z,999.15
2019-05-21T05:40:57.003Z,999.14
2019-05-21T05:41:57.059Z,999.18
2019-05-21T05:42:57.052Z,999.19
2019-05-21T05:43:56.953Z,999.24
2019-05-21T05:44:56.945Z,999.21
2019-05-21T05:45:56.962Z,999.24
2019-05-21T05:46:56.930Z,999.21
2019-05-21T05:47:56.965Z,999.19
2019-05-21T05:48:56.913Z,999.28
2019-05-21T05:49:56.886Z,999.25
2019-05-21T05:50:56.882Z,999.25
2019-05-21T05:51:56.871Z,999.28
2019-05-21T05:52:56.877Z,999.27
2019-05-21T05:53:56.919Z,999.27
2019-05-21T05:54:56.835Z,999.30
2019-05-21T05:55:56.821Z,999.31
2019-05-21T05:56:56.814Z,999.27
2019-05-21T05:57:56.834Z,999.28
2019-05-21T05:58:56.799Z,999.23
2019-05-21T05:59:56.788Z,999.33
2019-05-21T06:00:56.785Z,999.29
2019-05-21T06:01:56.762Z,999.29
2019-05-21T06:02:56.752Z,999.29
2019-05-21T06:03:56.774Z,999.30
2019-05-21T06:04:56.750Z,999.33
2019-05-21T06:05:56.725Z,999.34
2019-05-21T06:06:56.708Z,999.36
2019-05-21T06:07:59.646Z,999.33
2019-05-21T06:08:56.719Z,999.34
2019-05-21T06:09:56.676Z,999.30
2019-05-21T06:10:56.664Z,999.30
2019-05-21T06:11:56.656Z,999.32
2019-05-21T06:12:56.650Z,999.33
2019-05-21T06:13:56.635Z,999.32
2019-05-21T06:14:56.653Z,999.32
2019-05-21T06:15:56.625Z,999.32
2019-05-21T06:16:56.595Z,999.32
2019-05-21T06:17:56.600Z,999.30
2019-05-21T06:18:56.579Z,999.31
2019-05-21T06:19:56.590Z,999.32
2019-05-21T06:20:56.696Z,999.30
2019-05-21T06:21:56.615Z,999.25
2019-05-21T06:22:56.616Z,999.26
2019-05-21T06:23:56.524Z,999.26
2019-05-21T06:24:56.533Z,999.28
2019-05-21T06:25:56.523Z,999.23
2019-05-21T06:26:56.486Z,999.27
2019-05-21T06:27:56.473Z,999.28
2019-05-21T06:28:56.468Z,999.29
2019-05-21T06:29:56.467Z,999.25
2019-05-21T06:30:56.440Z,999.28
2019-05-21T06:31:56.526Z,999.30
2019-05-21T06:32:56.421Z,999.26
2019-05-21T06:33:56.411Z,999.32
2019-05-21T06:34:56.507Z,999.32
2019-05-21T06:35:56.393Z,999.31
2019-05-21T06:36:56.378Z,999.31
2019-05-21T06:37:56.374Z,999.27
2019-05-21T06:38:56.357Z,999.28
2019-05-21T06:39:56.340Z,999.31
2019-05-21T06:40:56.361Z,999.30
2019-05-21T06:41:56.318Z,999.31
2019-05-21T06:42:56.311Z,999.30
2019-05-21T06:43:56.303Z,999.33
2019-05-21T06:44:56.286Z,999.31
2019-05-21T06:45:56.312Z,999.33
2019-05-21T06:46:56.275Z,999.36
2019-05-21T06:47:56.255Z,999.38
2019-05-21T06:48:56.245Z,999.42
2019-05-21T06:49:56.231Z,999.38
2019-05-21T06:50:56.254Z,999.46
2019-05-21T06:51:56.251Z,999.47
2019-05-21T06:52:56.227Z,999.49
2019-05-21T06:53:56.188Z,999.49
2019-05-21T06:54:56.184Z,999.48
2019-05-21T06:55:56.169Z,999.56
2019-05-21T06:56:56.267Z,999.55
2019-05-21T06:57:56.155Z,999.53
2019-05-21T06:58:56.133Z,999.57
2019-05-21T06:59:56.126Z,999.52
2019-05-21T07:00:56.115Z,999.47
2019-05-21T07:01:56.103Z,999.45
2019-05-21T07:02:56.216Z,999.49
2019-05-21T07:03:56.078Z,999.49
2019-05-21T07:04:56.150Z,999.54
2019-05-21T07:05:58.736Z,999.53
2019-05-21T07:06:56.054Z,999.55
2019-05-21T07:07:56.110Z,999.55
2019-05-21T07:08:56.022Z,999.52
2019-05-21T07:09:56.022Z,999.51
2019-05-21T07:10:56.004Z,999.52
2019-05-21T07:11:56.002Z,999.52
2019-05-21T07:12:56.091Z,999.54
2019-05-21T07:13:56.088Z,999.49
2019-05-21T07:14:55.957Z,999.50
2019-05-21T07:15:55.957Z,999.52
2019-05-21T07:16:55.942Z,999.53
2019-05-21T07:17:55.929Z,999.51
2019-05-21T07:18:55.916Z,999.46
2019-05-21T07:19:55.992Z,999.51
2019-05-21T07:20:55.899Z,999.54
2019-05-21T07:22:11.567Z,999.55
2019-05-21T07:22:56.899Z,999.53
2019-05-21T07:23:55.869Z,999.54
2019-05-21T07:24:55.864Z,999.55
2019-05-21T07:25:55.869Z,999.57
2019-05-21T07:26:55.833Z,999.56
2019-05-21T07:27:55.859Z,999.58
2019-05-21T07:28:56.489Z,999.61
2019-05-21T07:29:55.803Z,999.59
2019-05-21T07:30:55.901Z,999.59
2019-05-21T07:31:55.785Z,999.59
2019-05-21T07:32:55.782Z,999.58
2019-05-21T07:33:55.761Z,999.64
2019-05-21T07:34:55.748Z,999.65
2019-05-21T07:35:55.736Z,999.64
2019-05-21T07:36:55.807Z,999.66
2019-05-21T07:37:55.727Z,999.66
2019-05-21T07:38:55.711Z,999.73
2019-05-21T07:39:55.759Z,999.73
2019-05-21T07:40:55.679Z,999.75
2019-05-21T07:41:55.673Z,999.73
2019-05-21T07:42:55.661Z,999.72
2019-05-21T07:43:55.659Z,999.72
2019-05-21T07:44:55.697Z,999.69
2019-05-21T07:45:55.668Z,999.68
2019-05-21T07:46:55.617Z,999.71
2019-05-21T07:47:55.609Z,999.74
2019-05-21T07:48:55.679Z,999.71
2019-05-21T07:49:55.589Z,999.76
2019-05-21T07:50:55.582Z,999.76
2019-05-21T07:51:55.578Z,999.74
2019-05-21T07:52:55.553Z,999.73
2019-05-21T07:53:55.535Z,999.74
2019-05-21T07:54:55.611Z,999.72
2019-05-21T07:55:55.519Z,999.79
2019-05-21T07:56:55.509Z,999.77
2019-05-21T07:57:55.519Z,999.73
2019-05-21T07:58:55.485Z,999.77
2019-05-21T07:59:55.556Z,999.77
2019-05-21T08:00:55.470Z,999.76
2019-05-21T08:01:55.453Z,999.76
2019-05-21T08:02:55.454Z,999.78
2019-05-21T08:03:55.436Z,999.72
2019-05-21T08:04:55.436Z,999.78
2019-05-21T08:05:55.492Z,999.80
2019-05-21T08:06:55.408Z,999.86
2019-05-21T08:07:55.428Z,999.88
2019-05-21T08:09:11.746Z,999.91
2019-05-21T08:09:56.360Z,999.91
2019-05-21T08:10:55.435Z,999.91
2019-05-21T08:11:55.348Z,999.87
2019-05-21T08:12:55.345Z,999.87
2019-05-21T08:13:55.326Z,999.83
2019-05-21T08:14:55.309Z,999.85
2019-05-21T08:15:55.339Z,999.87
2019-05-21T08:16:55.297Z,999.79
2019-05-21T08:17:55.283Z,999.88
2019-05-21T08:18:55.278Z,999.84
2019-05-21T08:19:55.263Z,999.95
2019-05-21T08:20:55.248Z,999.97
2019-05-21T08:21:55.291Z,999.98
2019-05-21T08:22:55.224Z,1000.02
2019-05-21T08:23:55.218Z,1000.03
2019-05-21T08:24:55.209Z,1000.08
2019-05-21T08:25:55.194Z,1000.05
2019-05-21T08:26:55.229Z,1000.15
2019-05-21T08:27:55.299Z,1000.11
2019-05-21T08:28:55.161Z,1000.22
2019-05-21T08:29:55.148Z,1000.25
2019-05-21T08:30:55.218Z,1000.35
2019-05-21T08:31:55.126Z,1000.39
2019-05-21T08:32:55.228Z,1000.35
2019-05-21T08:33:55.105Z,1000.38
2019-05-21T08:34:55.095Z,1000.47
2019-05-21T08:35:55.105Z,1000.38
2019-05-21T08:36:55.083Z,1000.43
2019-05-21T08:37:55.079Z,1000.43
2019-05-21T08:38:55.135Z,1000.43
2019-05-21T08:39:55.045Z,1000.50
2019-05-21T08:40:55.038Z,1000.51
2019-05-21T08:41:55.027Z,1000.58
2019-05-21T08:42:55.022Z,1000.54
2019-05-21T08:43:55.011Z,1000.53
2019-05-21T08:44:55.046Z,1000.42
2019-05-21T08:45:54.984Z,1000.55
2019-05-21T08:46:54.972Z,1000.59
2019-05-21T08:47:54.969Z,1000.63
2019-05-21T08:48:54.952Z,1000.62
2019-05-21T08:49:54.941Z,1000.65
2019-05-21T08:50:55.012Z,1000.72
2019-05-21T08:51:54.920Z,1000.66
2019-05-21T08:52:54.905Z,1000.70
2019-05-21T08:53:54.902Z,1000.68
2019-05-21T08:54:56.404Z,1000.68
2019-05-21T08:55:54.959Z,1000.69
2019-05-21T08:56:54.866Z,1000.66
2019-05-21T08:58:06.317Z,1000.68
2019-05-21T08:58:55.850Z,1000.69
2019-05-21T08:59:54.846Z,1000.69
2019-05-21T09:00:54.910Z,1000.69
2019-05-21T09:01:58.821Z,1000.77
2019-05-21T09:02:54.810Z,1000.81
2019-05-21T09:03:54.799Z,1000.87
2019-05-21T09:04:54.785Z,1000.85
2019-05-21T09:05:54.868Z,1000.86
2019-05-21T09:06:54.767Z,1000.87
2019-05-21T09:07:54.764Z,1000.83
2019-05-21T09:08:54.757Z,1000.70
2019-05-21T09:09:54.743Z,1000.77
2019-05-21T09:10:55.013Z,1000.85
2019-05-21T09:11:54.732Z,1000.88
2019-05-21T09:12:54.720Z,1000.44
2019-05-21T09:13:54.712Z,1000.89
2019-05-21T09:14:54.726Z,1000.59
2019-05-21T09:15:54.731Z,1000.46
2019-05-21T09:16:54.672Z,1000.62
2019-05-21T09:17:54.659Z,1000.94
2019-05-21T09:18:54.656Z,1000.88
2019-05-21T09:19:54.673Z,1000.97
2019-05-21T09:20:54.716Z,1000.95
2019-05-21T09:21:54.706Z,1000.99
2019-05-21T09:22:54.680Z,1001.01
2019-05-21T09:23:54.626Z,1001.03
2019-05-21T09:24:54.603Z,1001.02
2019-05-21T09:25:54.585Z,1001.11
2019-05-21T09:26:54.664Z,1001.10
2019-05-21T09:27:54.566Z,1001.09
2019-05-21T09:28:54.561Z,1001.10
2019-05-21T09:29:54.558Z,1001.14
2019-05-21T09:30:54.539Z,1001.12
2019-05-21T09:31:54.563Z,1001.07
2019-05-21T09:32:54.632Z,1001.10
2019-05-21T09:33:54.517Z,1000.99
2019-05-21T09:34:54.500Z,1001.05
2019-05-21T09:35:54.496Z,1001.05
2019-05-21T09:36:54.485Z,1000.97
2019-05-21T09:37:54.493Z,1001.06
2019-05-21T09:38:54.551Z,1001.01
2019-05-21T09:39:54.461Z,1001.06
2019-05-21T09:40:54.449Z,1001.13
2019-05-21T09:41:54.435Z,1000.96
2019-05-21T09:42:54.513Z,1001.09
2019-05-21T09:43:54.422Z,1001.11
2019-05-21T09:44:54.408Z,1001.17
2019-05-21T09:45:54.404Z,1001.18
2019-05-21T09:46:54.417Z,1001.19
2019-05-21T09:47:54.456Z,1001.20
2019-05-21T09:48:56.214Z,1001.22
2019-05-21T09:49:54.366Z,1001.26
2019-05-21T09:50:54.361Z,1001.24
2019-05-21T09:51:54.353Z,1001.23
2019-05-21T09:52:54.352Z,1001.26
2019-05-21T09:53:54.335Z,1001.21
2019-05-21T09:54:54.318Z,1001.25
2019-05-21T09:55:54.309Z,1001.23
2019-05-21T09:56:54.300Z,1001.23
2019-05-21T09:57:54.400Z,1001.23
2019-05-21T09:58:54.292Z,1001.25
2019-05-21T09:59:54.278Z,1001.28
2019-05-21T10:00:54.265Z,1001.27
2019-05-21T10:01:54.250Z,1001.29
2019-05-21T10:02:54.243Z,1001.27
2019-05-21T10:03:54.343Z,1001.24
2019-05-21T10:04:54.227Z,1000.70
2019-05-21T10:05:54.219Z,1001.21
2019-05-21T10:06:54.215Z,1001.24
2019-05-21T10:07:54.204Z,1001.23
2019-05-21T10:08:54.206Z,1001.19
2019-05-21T10:09:54.179Z,1001.22
2019-05-21T10:10:54.202Z,1001.18
2019-05-21T10:11:54.161Z,1001.23
2019-05-21T10:12:54.237Z,1001.24
2019-05-21T10:13:54.143Z,1001.23
2019-05-21T10:14:54.216Z,1001.31
2019-05-21T10:15:54.133Z,1001.27
2019-05-21T10:16:54.119Z,1001.31
2019-05-21T10:17:54.106Z,1001.28
2019-05-21T10:18:54.100Z,1000.84
2019-05-21T10:19:54.199Z,1000.63
2019-05-21T10:20:54.084Z,1000.63
2019-05-21T10:21:56.908Z,1000.56
2019-05-21T10:22:54.063Z,1000.52
2019-05-21T10:23:54.051Z,1000.53
2019-05-21T10:24:54.051Z,1000.47
2019-05-21T10:25:54.116Z,1000.48
2019-05-21T10:26:54.026Z,1000.51
2019-05-21T10:27:54.010Z,1000.50
2019-05-21T10:28:54.004Z,1000.49
2019-05-21T10:29:54.006Z,1000.48
2019-05-21T10:30:53.984Z,1000.53
2019-05-21T10:31:54.053Z,1001.00
2019-05-21T10:32:53.962Z,1000.94
2019-05-21T10:33:53.949Z,1001.06
2019-05-21T10:34:53.940Z,1000.92
2019-05-21T10:35:53.935Z,1001.08
2019-05-21T10:36:53.923Z,1000.83
2019-05-21T10:37:55.354Z,1000.73
2019-05-21T10:38:53.896Z,1000.73
2019-05-21T10:39:53.898Z,1000.49
2019-05-21T10:40:53.972Z,1000.53
2019-05-21T10:41:53.871Z,1000.51
2019-05-21T10:42:53.871Z,1000.54
2019-05-21T10:43:53.851Z,1000.53
2019-05-21T10:44:53.839Z,1000.52
2019-05-21T10:45:53.977Z,1000.60
2019-05-21T10:46:53.820Z,1000.80
2019-05-21T10:47:53.810Z,1001.01
2019-05-21T10:48:53.797Z,1001.00
2019-05-21T10:49:53.795Z,1000.86
2019-05-21T10:50:53.777Z,1000.66
2019-05-21T10:51:53.849Z,1000.55
2019-05-21T10:52:53.753Z,1000.51
2019-05-21T10:53:53.769Z,1000.54
2019-05-21T10:54:53.731Z,1000.64
2019-05-21T10:55:53.737Z,1000.63
2019-05-21T10:56:53.712Z,1000.77
2019-05-21T10:57:53.719Z,1000.99
2019-05-21T10:58:53.691Z,1000.94
2019-05-21T10:59:53.680Z,1001.09
2019-05-21T11:00:53.705Z,1001.23
2019-05-21T11:01:53.716Z,1001.14
2019-05-21T11:02:53.735Z,1001.10
2019-05-21T11:03:53.640Z,1000.97
2019-05-21T11:04:53.634Z,1000.92
2019-05-21T11:06:09.122Z,1000.97
2019-05-21T11:06:54.611Z,1000.88
2019-05-21T11:07:53.685Z,1000.82
2019-05-21T11:08:53.675Z,1000.84
2019-05-21T11:09:53.583Z,1000.84
2019-05-21T11:10:53.574Z,1000.83
2019-05-21T11:11:53.567Z,1000.81
2019-05-21T11:12:53.558Z,1000.75
2019-05-21T11:13:53.675Z,1000.72
2019-05-21T11:14:53.533Z,1000.77
2019-05-21T11:15:53.523Z,1000.71
2019-05-21T11:16:53.514Z,1000.69
2019-05-21T11:18:09.129Z,1000.66
2019-05-21T11:18:54.575Z,1000.67
2019-05-21T11:19:53.486Z,1000.69
2019-05-21T11:20:53.476Z,1000.73
2019-05-21T11:21:53.464Z,1000.69
2019-05-21T11:22:53.446Z,1000.68
2019-05-21T11:23:53.552Z,1000.73
2019-05-21T11:24:53.484Z,1000.73
2019-05-21T11:25:53.535Z,1000.67
2019-05-21T11:26:53.405Z,1000.70
2019-05-21T11:27:53.396Z,1000.75
2019-05-21T11:28:53.471Z,1000.76
2019-05-21T11:29:53.375Z,1000.74
2019-05-21T11:30:53.378Z,1000.66
2019-05-21T11:31:57.405Z,1000.71
2019-05-21T11:32:53.340Z,1000.71
2019-05-21T11:33:53.442Z,1000.69
2019-05-21T11:34:53.321Z,1000.66
2019-05-21T11:35:53.352Z,1000.65
2019-05-21T11:36:53.312Z,1000.63
2019-05-21T11:37:53.295Z,1000.64
2019-05-21T11:38:53.280Z,1000.59
2019-05-21T11:39:53.267Z,1000.59
2019-05-21T11:40:53.261Z,1000.55
2019-05-21T11:41:53.330Z,1000.65
2019-05-21T11:42:53.462Z,1000.59
2019-05-21T11:43:53.230Z,1000.61
2019-05-21T11:44:53.213Z,1000.65
2019-05-21T11:45:53.286Z,1000.62
2019-05-21T11:46:53.275Z,1000.62
2019-05-21T11:47:54.708Z,1000.60
2019-05-21T11:48:53.174Z,1000.64
2019-05-21T11:49:53.166Z,1000.64
2019-05-21T11:50:53.157Z,1000.60
2019-05-21T11:51:53.144Z,1000.54
2019-05-21T11:52:53.216Z,1000.58
2019-05-21T11:53:53.128Z,1000.54
2019-05-21T11:54:55.889Z,1000.64
2019-05-21T11:55:53.101Z,1000.63
2019-05-21T11:56:53.096Z,1000.65
2019-05-21T11:57:53.081Z,1000.68
2019-05-21T11:58:53.128Z,1000.69
2019-05-21T11:59:53.169Z,1000.67
2019-05-21T12:00:53.049Z,1000.69
2019-05-21T12:01:53.033Z,1000.67
2019-05-21T12:02:53.080Z,1000.69
2019-05-21T12:03:53.011Z,1000.71
2019-05-21T12:04:53.019Z,1000.70
2019-05-21T12:05:53.096Z,1000.68
2019-05-21T12:06:53.018Z,1000.69
2019-05-21T12:07:52.978Z,1000.70
2019-05-21T12:08:56.954Z,1000.72
2019-05-21T12:09:52.952Z,1000.66
2019-05-21T12:10:53.027Z,1000.66
2019-05-21T12:11:52.932Z,1000.67
2019-05-21T12:12:52.916Z,1000.69
2019-05-21T12:13:52.908Z,1000.67
2019-05-21T12:14:52.902Z,1000.67
2019-05-21T12:15:52.893Z,1000.68
2019-05-21T12:16:52.965Z,1000.65
2019-05-21T12:17:52.862Z,1000.69
2019-05-21T12:18:52.937Z,1000.70
2019-05-21T12:19:52.888Z,1000.70
2019-05-21T12:20:52.829Z,1000.72